Hatsu Envoy — VSQL9 — position and weather

sailwx.info

Track history (hours):
 
Tides and Currents Weather Stations Pressure Air Temp Water Temp Dewpoint Dewpoint Depression Visibility Wind Speed Wind Dir Waves Ship Positions

Hatsu Envoy

Last reported at 2016-Jul-28 19:33 UTC. Time now 2016-Jul-28 20:21 UTC.
Position N 47°33' W 122°27'.

Type: Cargo ship. MMSI: 235414000.

Date/timePositionNaut miles runAvg speedWind from/ knotsBaromVisibWave heightAir tempDewpointWater temp
2016-Jul-28 19:33N 47°33' W 122°27'1716.6
2016-Jul-28 18:33N 47°50' W 122°28'1918.6
2016-Jul-28 17:31N 48°07' W 122°41'1818.3
2016-Jul-28 16:33N 48°12' W 123°06'1313.4
2016-Jul-28 15:33N 48°11' W 123°26'1615.7
2016-Jul-28 14:33N 48°14' W 123°49'1615.7
2016-Jul-28 13:33N 48°19' W 124°12'1716.7
2016-Jul-28 12:33N 48°26' W 124°34'1616.0
2016-Jul-28 11:33N 48°29' W 124°58'1616.3
2016-Jul-28 10:33N 48°29' W 125°22'1616.3
2016-Jul-28 09:33N 48°29' W 125°47'1717.1
2016-Jul-28 08:33N 48°29' W 126°13'1716.9
2016-Jul-28 07:33N 48°28' W 126°38'1616.4
2016-Jul-28 06:33N 48°29' W 127°03'1716.5
2016-Jul-28 05:33N 48°28' W 127°28'1716.5
2016-Jul-28 04:33N 48°29' W 127°53'1916.7
2016-Jul-28 03:25N 48°29' W 128°21'  
Track history (hours):
 
Tides and Currents Weather Stations Pressure Air Temp Water Temp Dewpoint Dewpoint Depression Visibility Wind Speed Wind Dir Waves Ship Positions

Hatsu Envoy

Last reported at 2016-Jul-28 19:33 UTC. Time now 2016-Jul-28 20:21 UTC.
Position N 47°33' W 122°27'.

Type: Cargo ship. MMSI: 235414000.

Date/timePositionNaut miles runAvg speedWind from/ knotsBaromVisibWave heightAir tempDewpointWater temp
2016-Jul-28 19:33N 47°33' W 122°27'1716.6
2016-Jul-28 18:33N 47°50' W 122°28'1918.6
2016-Jul-28 17:31N 48°07' W 122°41'1818.3
2016-Jul-28 16:33N 48°12' W 123°06'1313.4
2016-Jul-28 15:33N 48°11' W 123°26'1615.7
2016-Jul-28 14:33N 48°14' W 123°49'1615.7
2016-Jul-28 13:33N 48°19' W 124°12'1716.7
2016-Jul-28 12:33N 48°26' W 124°34'1616.0
2016-Jul-28 11:33N 48°29' W 124°58'1616.3
2016-Jul-28 10:33N 48°29' W 125°22'1616.3
2016-Jul-28 09:33N 48°29' W 125°47'1717.1
2016-Jul-28 08:33N 48°29' W 126°13'1716.9
2016-Jul-28 07:33N 48°28' W 126°38'1616.4
2016-Jul-28 06:33N 48°29' W 127°03'1716.5
2016-Jul-28 05:33N 48°28' W 127°28'1716.5
2016-Jul-28 04:33N 48°29' W 127°53'1916.7
2016-Jul-28 03:25N 48°29' W 128°21'  

Dump ship's entire track history